Time;durP1;ratioP1;P1;durP2;ratioP2;P2;SDS_P1;SDS_P2;PMS_P1;PMS_P2;Temp;Humidity;BMP_temperature;BMP_pressure;BME280_temperature;BME280_humidity;BME280_pressure;Samples;Min_cycle;Max_cycle;Signal;HPM_P1;HPM_P2
2022/04/13 00:01:54;;;;;;;12.48;4.53;;;;;;;11.60;35.28;99114.03;4427025;32;20102;-82
2022/04/13 00:04:19;;;;;;;11.98;4.50;;;;;;;11.58;35.54;99114.12;4441194;32;20146;-83
2022/04/13 00:06:45;;;;;;;11.63;4.30;;;;;;;11.57;35.55;99115.06;4441211;32;20081;-83
2022/04/13 00:09:10;;;;;;;14.02;4.75;;;;;;;11.53;35.72;99121.44;4440990;32;20322;-83
2022/04/13 00:11:36;;;;;;;11.12;4.70;;;;;;;11.53;35.82;99121.44;4440915;32;20085;-83
2022/04/13 00:14:02;;;;;;;12.13;4.40;;;;;;;11.51;35.89;99119.81;4427066;32;20097;-83
2022/04/13 00:16:28;;;;;;;11.70;4.78;;;;;;;11.46;35.92;99130.63;4440747;32;20150;-83
2022/04/13 00:18:54;;;;;;;10.75;4.18;;;;;;;11.48;36.11;99126.09;4440832;32;20610;-83
2022/04/13 00:21:19;;;;;;;10.90;4.62;;;;;;;11.44;36.17;99119.28;4440733;32;20437;-84
2022/04/13 00:23:45;;;;;;;11.98;4.57;;;;;;;11.40;36.18;99130.94;4440828;32;20350;-84
2022/04/13 00:26:10;;;;;;;12.52;4.85;;;;;;;11.39;35.97;99130.06;4440795;32;20090;-84
2022/04/13 00:28:36;;;;;;;11.90;4.47;;;;;;;11.37;35.93;99125.81;4440759;32;20082;-83
2022/04/13 00:31:02;;;;;;;13.48;5.53;;;;;;;11.35;35.98;99127.69;4440329;32;20097;-83
2022/04/13 00:33:27;;;;;;;12.57;4.37;;;;;;;11.36;35.79;99129.41;4427013;32;20155;-83
2022/04/13 00:35:54;;;;;;;11.65;4.53;;;;;;;11.33;35.90;99125.13;4439613;32;20093;-83
2022/04/13 00:38:21;;;;;;;12.68;4.25;;;;;;;11.23;36.06;99123.91;4426641;32;20089;-83
2022/04/13 00:40:47;;;;;;;14.02;4.60;;;;;;;11.19;36.12;99131.13;4440531;32;20120;-83
2022/04/13 00:43:12;;;;;;;11.88;4.35;;;;;;;11.22;35.99;99124.81;4440639;32;20366;-83
2022/04/13 00:45:38;;;;;;;13.60;4.57;;;;;;;11.23;35.78;99128.34;4426670;32;20089;-83
2022/04/13 00:48:04;;;;;;;11.35;4.55;;;;;;;11.17;35.80;99130.34;4440570;32;20090;-84
2022/04/13 00:50:29;;;;;;;12.90;4.18;;;;;;;11.16;35.76;99131.28;4440609;32;20366;-83
2022/04/13 00:52:58;;;;;;;11.52;4.35;;;;;;;11.19;35.72;99136.38;4440605;32;20139;-83
2022/04/13 00:55:24;;;;;;;11.27;4.22;;;;;;;11.14;35.82;99121.72;4440551;32;20156;-84
2022/04/13 00:57:50;;;;;;;12.05;3.83;;;;;;;11.11;35.69;99128.03;4440601;32;20155;-83
2022/04/13 01:00:16;;;;;;;11.35;4.22;;;;;;;11.06;35.67;99127.41;4426439;32;20683;-83
2022/04/13 01:02:43;;;;;;;13.00;4.22;;;;;;;11.06;35.68;99130.03;4426432;32;20151;-84
2022/04/13 01:05:08;;;;;;;13.05;4.30;;;;;;;11.04;35.68;99125.78;4426561;32;20085;-83
2022/04/13 01:07:34;;;;;;;10.45;3.92;;;;;;;11.02;35.67;99121.44;4426419;32;20116;-83
2022/04/13 01:10:05;;;;;;;12.23;4.05;;;;;;;10.96;35.64;99119.09;4440703;32;20200;-83
2022/04/13 01:12:30;;;;;;;11.80;4.25;;;;;;;10.98;35.45;99126.94;4427159;32;20105;-82
2022/04/13 01:14:56;;;;;;;10.15;4.20;;;;;;;10.94;35.24;99130.66;4426553;32;20109;-83
2022/04/13 01:17:22;;;;;;;9.77;3.62;;;;;;;10.93;35.16;99128.94;4440635;32;20130;-84
2022/04/13 01:19:48;;;;;;;10.45;3.40;;;;;;;10.93;35.01;99128.94;4440651;32;20097;-83
2022/04/13 01:22:25;;;;;;;10.30;3.78;;;;;;;10.90;35.04;99127.34;4426275;32;20605;-83
2022/04/13 01:24:51;;;;;;;10.73;3.80;;;;;;;10.93;35.03;99126.31;4440300;32;20116;-83
2022/04/13 01:27:17;;;;;;;10.18;3.75;;;;;;;10.97;35.01;99130.50;4440383;32;20093;-83
2022/04/13 01:29:48;;;;;;;9.93;3.42;;;;;;;10.92;34.99;99124.63;4440191;32;20097;-83
2022/04/13 01:32:14;;;;;;;10.40;3.45;;;;;;;10.92;34.91;99127.25;4440167;32;20097;-84
2022/04/13 01:34:49;;;;;;;11.00;3.83;;;;;;;10.91;34.83;99139.56;4440322;32;20427;-83
2022/04/13 01:37:15;;;;;;;10.70;3.58;;;;;;;10.91;34.75;99131.66;4426270;32;20107;-83
2022/04/13 01:39:41;;;;;;;9.30;3.30;;;;;;;10.88;34.77;99134.47;4426372;32;20113;-83
2022/04/13 01:42:07;;;;;;;11.12;3.60;;;;;;;10.88;34.70;99144.16;4440195;32;20116;-83
2022/04/13 01:44:32;;;;;;;10.82;3.80;;;;;;;10.87;34.69;99148.56;4440300;32;20445;-83
2022/04/13 01:46:58;;;;;;;10.20;4.00;;;;;;;10.88;34.74;99152.91;4439925;32;20445;-83
2022/04/13 01:49:23;;;;;;;10.48;3.50;;;;;;;10.87;34.77;99145.94;4440093;32;20104;-82
2022/04/13 01:51:49;;;;;;;10.63;4.05;;;;;;;10.92;35.04;99151.00;4426009;32;20109;-83
2022/04/13 01:54:14;;;;;;;11.90;3.87;;;;;;;10.91;35.04;99152.75;4440069;32;20133;-83
2022/04/13 01:56:40;;;;;;;10.20;3.60;;;;;;;10.89;35.04;99161.66;4440181;32;20121;-83
2022/04/13 01:59:05;;;;;;;11.57;4.47;;;;;;;10.86;35.25;99159.22;4440025;32;20444;-83
2022/04/13 02:01:31;;;;;;;12.70;4.05;;;;;;;10.86;35.31;99164.47;4425940;32;20109;-83
2022/04/13 02:03:57;;;;;;;10.32;3.87;;;;;;;10.89;35.48;99165.16;4440013;32;20089;-84
2022/04/13 02:06:22;;;;;;;12.48;4.18;;;;;;;10.82;35.63;99167.25;4439782;32;20089;-84
2022/04/13 02:08:48;;;;;;;11.98;4.43;;;;;;;10.76;35.83;99158.81;4439918;32;20164;-84
2022/04/13 02:11:14;;;;;;;13.65;4.35;;;;;;;10.79;35.93;99167.38;4439930;32;20097;-83
2022/04/13 02:13:39;;;;;;;11.00;4.35;;;;;;;10.78;35.95;99168.34;4425841;32;20115;-84
2022/04/13 02:16:05;;;;;;;11.35;4.43;;;;;;;10.76;36.02;99167.56;4439818;32;20451;-83
2022/04/13 02:18:31;;;;;;;12.35;4.43;;;;;;;10.70;36.05;99164.34;4425738;32;20112;-84
2022/04/13 02:20:57;;;;;;;12.45;4.18;;;;;;;10.70;36.20;99167.00;4425728;32;20132;-83
2022/04/13 02:23:23;;;;;;;10.45;3.90;;;;;;;10.68;36.25;99169.72;4439803;32;20124;-83
2022/04/13 02:25:48;;;;;;;11.95;4.00;;;;;;;10.65;36.39;99169.03;4439759;32;20093;-83
2022/04/13 02:28:14;;;;;;;10.93;4.53;;;;;;;10.64;36.44;99170.78;4439671;32;20093;-84
2022/04/13 02:30:39;;;;;;;12.18;4.28;;;;;;;10.62;36.45;99168.25;4439453;32;20108;-84
2022/04/13 02:33:04;;;;;;;12.20;4.47;;;;;;;10.60;36.43;99162.19;4439615;32;20085;-84
2022/04/13 02:35:30;;;;;;;11.63;4.50;;;;;;;10.59;36.40;99160.47;4439517;32;20128;-84
2022/04/13 02:37:56;;;;;;;11.35;4.37;;;;;;;10.55;36.35;99161.56;4439440;32;20092;-84
2022/04/13 02:40:21;;;;;;;12.18;4.15;;;;;;;10.56;36.38;99162.41;4439397;32;20163;-84
2022/04/13 02:42:47;;;;;;;11.95;4.32;;;;;;;10.54;36.47;99159.84;4439464;32;20085;-84
2022/04/13 02:45:12;;;;;;;11.85;3.97;;;;;;;10.54;36.37;99157.19;4439504;32;20402;-84
2022/04/13 02:47:38;;;;;;;10.77;4.45;;;;;;;10.48;36.57;99157.50;4439373;32;20404;-83
2022/04/13 02:50:06;;;;;;;12.27;4.53;;;;;;;10.43;36.72;99167.44;4439515;32;20207;-84
2022/04/13 02:52:31;;;;;;;12.32;4.60;;;;;;;10.40;36.86;99162.28;4439278;32;20085;-84
2022/04/13 02:54:57;;;;;;;12.70;4.93;;;;;;;10.38;36.91;99167.63;4439439;32;20116;-84
2022/04/13 02:57:23;;;;;;;12.40;5.10;;;;;;;10.37;36.95;99165.94;4439640;32;20501;-84
2022/04/13 02:59:49;;;;;;;13.10;4.95;;;;;;;10.40;36.91;99173.66;4440675;32;20157;-84
2022/04/13 03:02:18;;;;;;;12.35;4.60;;;;;;;10.34;37.13;99168.69;4441525;32;20120;-84
2022/04/13 03:04:46;;;;;;;12.35;4.68;;;;;;;10.36;37.35;99168.63;4441483;32;20085;-83
2022/04/13 03:07:12;;;;;;;13.30;5.05;;;;;;;10.29;37.41;99167.19;4427526;32;20196;-83
2022/04/13 03:09:38;;;;;;;12.37;5.10;;;;;;;10.25;37.68;99163.84;4427314;32;20113;-83
2022/04/13 03:12:05;;;;;;;13.10;5.50;;;;;;;10.17;37.92;99171.25;4441387;32;20168;-83
2022/04/13 03:14:31;;;;;;;13.50;5.00;;;;;;;10.20;37.88;99174.59;4441248;32;20085;-83
2022/04/13 03:16:56;;;;;;;13.15;5.00;;;;;;;10.11;38.29;99171.53;4441238;32;20151;-83
2022/04/13 03:19:22;;;;;;;13.90;4.62;;;;;;;10.16;38.11;99170.41;4441221;32;20133;-83
2022/04/13 03:21:51;;;;;;;18.33;5.70;;;;;;;10.15;38.26;99171.31;4441159;32;20093;-83
2022/04/13 03:24:17;;;;;;;13.65;5.00;;;;;;;10.17;38.04;99171.25;4441142;32;20089;-83
2022/04/13 03:26:42;;;;;;;11.95;4.40;;;;;;;10.15;38.17;99175.72;4441208;32;20102;-83
2022/04/13 03:29:08;;;;;;;11.85;4.28;;;;;;;10.16;38.42;99177.41;4441181;32;20429;-83
2022/04/13 03:31:33;;;;;;;11.48;4.72;;;;;;;10.12;38.52;99183.75;4426894;32;20123;-83
2022/04/13 03:33:58;;;;;;;11.12;4.43;;;;;;;10.11;38.60;99176.81;4441176;32;20112;-83
2022/04/13 03:36:24;;;;;;;13.45;5.12;;;;;;;10.10;38.45;99183.84;4441062;32;20093;-83
2022/04/13 03:38:49;;;;;;;13.27;4.82;;;;;;;10.09;38.31;99187.41;4427108;32;20128;-83
2022/04/13 03:41:15;;;;;;;13.90;4.95;;;;;;;10.06;38.31;99187.53;4441020;32;20428;-83
2022/04/13 03:43:40;;;;;;;10.90;4.43;;;;;;;10.03;38.24;99185.91;4440912;32;20141;-83
2022/04/13 03:46:05;;;;;;;12.40;4.75;;;;;;;10.06;38.17;99191.94;4441102;32;20365;-82
2022/04/13 03:48:33;;;;;;;13.07;4.62;;;;;;;10.04;38.05;99195.50;4426970;32;20109;-84
2022/04/13 03:51:00;;;;;;;11.63;4.57;;;;;;;10.06;37.96;99195.41;4440969;32;20160;-84
2022/04/13 03:53:25;;;;;;;12.02;4.57;;;;;;;10.03;37.79;99196.44;4427306;32;20127;-84
2022/04/13 03:55:51;;;;;;;10.95;4.07;;;;;;;10.04;37.72;99202.53;4440918;32;20489;-84
2022/04/13 03:58:16;;;;;;;12.88;4.70;;;;;;;10.02;37.76;99201.75;4440958;32;20109;-83
2022/04/13 04:00:42;;;;;;;13.20;4.97;;;;;;;10.00;37.82;99204.44;4440840;32;20115;-82
2022/04/13 04:03:07;;;;;;;13.10;4.57;;;;;;;10.01;37.73;99210.59;4440858;32;20139;-83
2022/04/13 04:05:33;;;;;;;12.23;4.45;;;;;;;10.01;37.64;99205.31;4440845;32;20117;-83
2022/04/13 04:07:58;;;;;;;12.98;4.45;;;;;;;10.03;37.68;99206.94;4440856;32;20444;-83
2022/04/13 04:10:24;;;;;;;11.45;4.43;;;;;;;10.03;37.67;99203.47;4440877;32;20125;-83
2022/04/13 04:12:49;;;;;;;12.65;4.72;;;;;;;10.08;37.69;99205.88;4440898;32;20398;-84
2022/04/13 04:15:14;;;;;;;12.80;5.18;;;;;;;10.16;37.65;99206.38;4440761;32;20097;-83
2022/04/13 04:17:40;;;;;;;12.07;4.65;;;;;;;10.17;37.66;99216.84;4426822;32;20179;-84
2022/04/13 04:20:06;;;;;;;12.25;4.60;;;;;;;10.24;37.76;99205.12;4426709;32;20369;-84
2022/04/13 04:22:32;;;;;;;12.85;5.28;;;;;;;10.37;37.82;99209.81;4440707;32;20097;-84
2022/04/13 04:25:01;;;;;;;13.65;5.57;;;;;;;10.44;37.77;99211.25;4440870;32;20109;-84
2022/04/13 04:27:26;;;;;;;10.70;4.30;;;;;;;10.51;37.75;99211.84;4440716;32;20120;-84
2022/04/13 04:29:51;;;;;;;12.25;5.45;;;;;;;10.61;37.09;99218.38;4440545;32;20090;-83
2022/04/13 04:32:17;;;;;;;13.15;4.78;;;;;;;10.70;37.06;99215.31;4424003;32;20107;-84
2022/04/13 04:34:42;;;;;;;14.30;5.47;;;;;;;10.87;36.87;99224.16;4425247;32;20136;-84
2022/04/13 04:37:07;;;;;;;13.05;5.45;;;;;;;10.96;36.09;99221.91;4424307;32;20098;-84
2022/04/13 04:39:33;;;;;;;13.85;5.65;;;;;;;11.08;36.70;99225.72;4423981;32;20109;-84
2022/04/13 04:41:58;;;;;;;14.40;5.45;;;;;;;11.15;36.89;99231.56;4424022;32;20442;-84
2022/04/13 04:44:24;;;;;;;12.55;5.00;;;;;;;11.33;36.30;99217.44;4425367;32;20369;-84
2022/04/13 04:46:49;;;;;;;12.77;5.80;;;;;;;11.40;36.66;99223.28;4425250;32;20117;-84
2022/04/13 04:49:14;;;;;;;14.95;5.45;;;;;;;11.57;36.61;99225.03;4425283;32;20090;-84
2022/04/13 04:51:40;;;;;;;12.68;5.00;;;;;;;11.65;36.45;99225.50;4425073;32;20129;-82
2022/04/13 04:54:05;;;;;;;12.23;4.82;;;;;;;11.78;35.64;99220.41;4425288;32;20126;-84
2022/04/13 04:56:31;;;;;;;14.30;5.15;;;;;;;11.87;35.57;99227.00;4425138;32;20112;-84
2022/04/13 04:58:57;;;;;;;12.00;5.00;;;;;;;12.00;35.03;99231.59;4425123;32;20108;-84
2022/04/13 05:01:22;;;;;;;12.60;4.72;;;;;;;12.23;34.51;99232.16;4425253;32;20085;-84
2022/04/13 05:03:50;;;;;;;12.43;4.87;;;;;;;12.24;34.88;99225.91;4424096;32;20102;-84
2022/04/13 05:06:21;;;;;;;14.10;5.45;;;;;;;12.46;33.34;99224.72;4425414;32;20493;-84
2022/04/13 05:08:51;;;;;;;13.65;5.50;;;;;;;12.49;33.49;99235.16;4425549;32;20130;-84
2022/04/13 05:11:17;;;;;;;14.80;5.75;;;;;;;12.53;33.68;99234.88;4411462;32;20571;-84
2022/04/13 05:13:45;;;;;;;13.48;5.47;;;;;;;12.69;32.37;99229.63;4424313;32;20499;-84
2022/04/13 05:16:12;;;;;;;11.90;5.03;;;;;;;12.89;32.06;99238.19;4425193;32;20098;-85
2022/04/13 05:18:38;;;;;;;13.05;5.12;;;;;;;12.86;32.09;99235.72;4424301;32;20120;-84
2022/04/13 05:21:03;;;;;;;13.32;5.10;;;;;;;12.81;32.39;99241.28;4423849;32;20086;-83
2022/04/13 05:23:29;;;;;;;12.65;5.22;;;;;;;13.02;32.37;99241.84;4424911;32;20089;-83
2022/04/13 05:25:54;;;;;;;13.73;5.22;;;;;;;13.14;31.92;99249.06;4425375;32;20163;-84
2022/04/13 05:28:19;;;;;;;12.80;5.40;;;;;;;13.12;32.41;99245.66;4425221;32;20105;-84
2022/04/13 05:30:45;;;;;;;12.70;5.45;;;;;;;13.18;32.57;99244.47;4425934;32;20090;-83
2022/04/13 05:33:12;;;;;;;12.18;5.62;;;;;;;13.37;31.72;99247.75;4440696;32;20426;-83
2022/04/13 05:35:38;;;;;;;12.88;5.10;;;;;;;13.48;31.70;99251.56;4440509;32;20173;-83
2022/04/13 05:38:05;;;;;;;13.18;5.20;;;;;;;13.45;31.78;99259.72;4426585;32;20116;-83
2022/04/13 05:40:30;;;;;;;15.20;5.55;;;;;;;13.62;31.17;99261.34;4440589;32;20410;-84
2022/04/13 05:42:56;;;;;;;13.48;5.37;;;;;;;13.74;30.60;99264.09;4440497;32;20097;-83
2022/04/13 05:45:21;;;;;;;13.30;5.60;;;;;;;13.80;30.99;99268.19;4440627;32;20115;-84
2022/04/13 05:47:47;;;;;;;12.25;5.25;;;;;;;13.74;31.06;99268.56;4440369;32;20104;-83
2022/04/13 05:50:13;;;;;;;12.75;5.28;;;;;;;13.90;31.07;99265.84;4440442;32;20117;-84
2022/04/13 05:52:39;;;;;;;13.32;4.65;;;;;;;13.90;31.29;99269.31;4440455;32;20113;-84
2022/04/13 05:55:06;;;;;;;12.60;5.47;;;;;;;14.04;30.92;99263.22;4440216;32;20120;-84
2022/04/13 05:57:31;;;;;;;13.25;5.07;;;;;;;14.14;31.01;99264.34;4440121;32;20093;-84
2022/04/13 05:59:57;;;;;;;13.57;5.28;;;;;;;14.29;30.07;99265.19;4440032;32;20104;-84
2022/04/13 06:02:22;;;;;;;13.95;5.03;;;;;;;14.35;29.94;99266.59;4440037;32;20098;-83
2022/04/13 06:04:48;;;;;;;13.98;5.93;;;;;;;14.39;30.15;99268.13;4440160;32;20519;-83
2022/04/13 06:07:14;;;;;;;13.48;6.05;;;;;;;14.53;30.33;99275.19;4413324;32;20127;-84
2022/04/13 06:09:39;;;;;;;13.77;6.40;;;;;;;14.55;30.16;99279.44;4426334;32;20088;-83
2022/04/13 06:12:05;;;;;;;15.43;6.22;;;;;;;14.49;30.43;99282.50;4440203;32;20378;-83
2022/04/13 06:14:31;;;;;;;14.15;5.82;;;;;;;14.70;30.03;99290.94;4440085;32;20479;-84
2022/04/13 06:16:56;;;;;;;14.60;5.65;;;;;;;14.61;29.96;99288.00;4440115;32;20085;-84
2022/04/13 06:19:21;;;;;;;13.05;6.05;;;;;;;14.69;30.50;99291.03;4440100;32;20100;-84
2022/04/13 06:21:47;;;;;;;13.93;5.93;;;;;;;14.78;30.25;99286.94;4439806;32;20139;-85
2022/04/13 06:24:12;;;;;;;13.95;6.18;;;;;;;14.75;30.12;99296.78;4425790;32;20097;-87
2022/04/13 06:26:38;;;;;;;13.95;6.10;;;;;;;14.72;29.90;99297.00;4425827;32;20115;-83
2022/04/13 06:29:04;;;;;;;13.07;6.22;;;;;;;14.70;30.41;99290.94;4425863;32;20141;-88
2022/04/13 06:31:29;;;;;;;15.27;6.32;;;;;;;14.80;29.92;99301.81;4416204;32;20102;-83
2022/04/13 06:33:55;;;;;;;13.65;6.53;;;;;;;14.72;30.38;99302.28;4409411;32;20117;-86
2022/04/13 06:36:20;;;;;;;14.15;6.65;;;;;;;14.79;30.33;99301.91;4410803;32;20147;-88
2022/04/13 06:38:46;;;;;;;15.52;6.50;;;;;;;14.90;30.12;99299.41;4410717;32;20082;-86
2022/04/13 06:41:12;;;;;;;15.85;6.00;;;;;;;15.04;29.26;99295.88;4409539;32;20110;-88
2022/04/13 06:43:38;;;;;;;16.33;5.97;;;;;;;15.05;29.26;99303.72;4410820;32;20098;-88
2022/04/13 06:46:03;;;;;;;14.27;6.53;;;;;;;15.05;29.32;99308.19;4412336;32;20116;-86
2022/04/13 06:48:29;;;;;;;13.48;6.10;;;;;;;15.06;29.65;99302.75;4409232;32;20095;-86
2022/04/13 06:50:54;;;;;;;12.52;5.57;;;;;;;14.96;29.73;99301.66;4410597;32;20366;-88
2022/04/13 06:53:19;;;;;;;15.43;6.25;;;;;;;15.00;28.96;99308.47;4409505;32;20128;-87
2022/04/13 06:55:48;;;;;;;15.50;6.95;;;;;;;14.77;29.36;99312.59;4410640;32;20086;-88
2022/04/13 06:58:14;;;;;;;16.65;7.10;;;;;;;14.78;30.02;99308.16;4410449;32;20070;-87
2022/04/13 07:00:40;;;;;;;15.43;6.70;;;;;;;14.89;29.88;99305.66;4421932;32;20488;-86
2022/04/13 07:03:05;;;;;;;15.77;6.50;;;;;;;14.99;30.31;99314.75;4425837;32;20097;-87
2022/04/13 07:05:31;;;;;;;15.23;6.93;;;;;;;14.98;29.98;99309.53;4412688;32;20124;-89
2022/04/13 07:07:58;;;;;;;15.35;6.50;;;;;;;15.05;29.65;99301.06;4410722;32;20074;-85
2022/04/13 07:10:26;;;;;;;15.43;6.35;;;;;;;15.12;29.08;99307.69;4410579;32;20168;-87
2022/04/13 07:12:51;;;;;;;14.75;6.60;;;;;;;15.04;29.71;99307.31;4409504;32;20129;-87
2022/04/13 07:15:17;;;;;;;13.88;6.75;;;;;;;15.31;29.27;99311.78;4410676;32;20361;-87
2022/04/13 07:17:43;;;;;;;14.18;6.25;;;;;;;15.28;28.71;99309.34;4409242;32;20122;-87
2022/04/13 07:20:10;;;;;;;15.45;6.87;;;;;;;15.31;29.47;99319.75;4410510;32;20489;-88
2022/04/13 07:22:52;;;;;;;14.60;7.40;;;;;;;15.45;29.01;99325.03;4410559;32;20094;-86
2022/04/13 07:25:18;;;;;;;15.73;7.25;;;;;;;15.43;29.14;99316.31;4410765;32;20081;-86
2022/04/13 07:27:44;;;;;;;14.85;7.57;;;;;;;15.38;29.62;99321.06;4410364;32;20117;-90
2022/04/13 07:30:11;;;;;;;17.52;8.07;;;;;;;15.46;29.74;99325.88;4410510;32;20480;-85
2022/04/13 07:32:36;;;;;;;18.00;7.65;;;;;;;15.51;29.68;99323.72;4435862;32;20119;-90
2022/04/13 07:35:05;;;;;;;16.75;7.65;;;;;;;15.49;29.51;99318.53;4441148;32;20105;-90
2022/04/13 07:37:34;;;;;;;16.27;7.32;;;;;;;15.38;29.79;99326.38;4441221;32;20081;-88
2022/04/13 07:39:59;;;;;;;14.55;7.50;;;;;;;15.46;29.80;99324.03;4427283;32;20102;-90
2022/04/13 07:42:26;;;;;;;16.15;8.02;;;;;;;15.60;30.10;99328.44;4441058;32;20158;-89
2022/04/13 07:44:55;;;;;;;14.30;7.32;;;;;;;15.70;29.04;99328.66;4440741;32;20395;-89
2022/04/13 07:47:21;;;;;;;15.82;7.37;;;;;;;15.75;29.71;99323.09;4441137;32;20144;-90
2022/04/13 07:49:47;;;;;;;17.87;7.93;;;;;;;15.75;29.62;99323.94;4441212;32;20120;-88
2022/04/13 07:52:13;;;;;;;17.48;7.87;;;;;;;15.74;29.91;99322.22;4441081;32;20123;-87
2022/04/13 07:54:39;;;;;;;16.58;8.02;;;;;;;15.64;29.21;99329.94;4427310;32;20086;-88
2022/04/13 07:57:05;;;;;;;19.10;7.53;;;;;;;15.62;29.85;99336.31;4441243;32;20085;-89
2022/04/13 07:59:31;;;;;;;16.33;7.70;;;;;;;15.57;29.38;99330.44;4441092;32;20129;-89
2022/04/13 08:01:56;;;;;;;16.40;7.57;;;;;;;15.52;29.72;99326.28;4442732;32;20093;-90
2022/04/13 08:04:22;;;;;;;16.05;7.80;;;;;;;15.54;29.60;99331.50;4428043;32;20093;-89
2022/04/13 08:06:47;;;;;;;17.67;7.70;;;;;;;15.72;29.96;99332.06;4440939;32;20104;-88
2022/04/13 08:09:13;;;;;;;16.05;7.87;;;;;;;15.78;29.33;99330.84;4440956;32;20109;-89
2022/04/13 08:11:38;;;;;;;17.02;7.10;;;;;;;15.94;29.19;99333.34;4440857;32;20503;-89
2022/04/13 08:14:04;;;;;;;16.70;6.90;;;;;;;15.92;29.58;99339.59;4440967;32;20081;-89
2022/04/13 08:16:30;;;;;;;15.60;6.87;;;;;;;16.03;28.98;99338.87;4440867;32;20130;-90
2022/04/13 08:18:55;;;;;;;15.05;6.85;;;;;;;16.09;28.56;99337.59;4440763;32;20105;-90
2022/04/13 08:21:21;;;;;;;15.02;7.18;;;;;;;16.10;28.29;99329.50;4440901;32;20123;-89
2022/04/13 08:23:46;;;;;;;16.95;7.10;;;;;;;16.11;28.71;99331.22;4440867;32;20107;-89
2022/04/13 08:26:11;;;;;;;16.67;5.82;;;;;;;16.18;27.81;99325.47;4426815;32;20424;-87
2022/04/13 08:28:37;;;;;;;12.52;5.60;;;;;;;16.26;27.06;99329.31;4440838;32;20453;-90
2022/04/13 08:31:04;;;;;;;12.85;5.68;;;;;;;16.22;27.74;99327.81;4426563;32;20163;-89
2022/04/13 08:33:30;;;;;;;15.00;5.70;;;;;;;16.29;27.84;99328.25;4440967;32;20077;-90
2022/04/13 08:35:56;;;;;;;11.82;4.45;;;;;;;16.28;27.71;99324.75;4440690;32;20099;-89
2022/04/13 08:38:21;;;;;;;12.13;4.53;;;;;;;16.29;25.97;99322.94;4440949;32;20101;-89
2022/04/13 08:40:56;;;;;;;10.63;4.20;;;;;;;16.25;25.50;99337.41;4440898;32;20098;-89
2022/04/13 08:43:30;;;;;;;11.15;4.20;;;;;;;16.11;26.01;99327.72;4426950;32;20085;-90
2022/04/13 08:45:59;;;;;;;10.40;3.75;;;;;;;16.17;26.01;99326.41;4440949;32;20078;-89
2022/04/13 08:48:26;;;;;;;11.05;3.95;;;;;;;16.26;26.10;99328.44;4440949;32;20104;-89
2022/04/13 08:50:58;;;;;;;12.70;4.62;;;;;;;16.36;26.14;99331.31;4426730;32;20126;-90
2022/04/13 08:53:28;;;;;;;10.68;4.47;;;;;;;16.37;25.83;99322.41;4440641;32;20078;-90
2022/04/13 08:55:54;;;;;;;10.15;4.25;;;;;;;16.45;25.93;99331.53;4440369;32;20547;-90
2022/04/13 08:58:19;;;;;;;11.07;4.22;;;;;;;16.46;26.02;99324.41;4425928;32;20097;-90
2022/04/13 09:00:49;;;;;;;9.73;3.55;;;;;;;16.45;25.93;99322.69;4440470;32;20090;-90
2022/04/13 09:03:44;;;;;;;9.40;3.25;;;;;;;16.49;25.57;99333.00;4440489;32;20089;-90
2022/04/13 09:06:10;;;;;;;11.48;4.12;;;;;;;16.63;25.07;99326.72;4440670;32;20108;-90
2022/04/13 09:08:50;;;;;;;10.00;3.53;;;;;;;16.60;24.78;99328.75;4426482;32;20848;-89
2022/04/13 09:11:17;;;;;;;10.82;3.90;;;;;;;16.57;24.80;99318.31;4440489;32;20136;-89
2022/04/13 09:13:43;;;;;;;11.30;4.33;;;;;;;16.63;24.93;99324.06;4440495;32;20449;-90
2022/04/13 09:16:09;;;;;;;14.18;4.87;;;;;;;16.62;25.61;99321.50;4440489;32;20089;-90
2022/04/13 09:18:35;;;;;;;12.07;4.62;;;;;;;16.74;26.47;99322.44;4426433;32;20159;-91
2022/04/13 09:21:01;;;;;;;12.02;4.30;;;;;;;16.74;25.54;99328.59;4440306;32;20121;-90
2022/04/13 09:23:28;;;;;;;13.65;4.18;;;;;;;16.77;25.45;99311.59;4440511;32;20134;-89
2022/04/13 09:25:54;;;;;;;9.57;3.70;;;;;;;16.85;25.05;99318.09;4440371;32;20108;-90
2022/04/13 09:28:20;;;;;;;9.70;3.75;;;;;;;16.71;24.62;99312.88;4426427;32;20101;-91
2022/04/13 09:30:46;;;;;;;14.18;4.78;;;;;;;16.76;24.62;99321.38;4426370;32;20113;-91
2022/04/13 09:33:11;;;;;;;10.80;4.28;;;;;;;16.83;24.45;99305.84;4440387;32;20104;-89
2022/04/13 09:35:37;;;;;;;11.30;5.30;;;;;;;16.78;25.30;99313.28;4426368;32;20112;-90
2022/04/13 09:38:03;;;;;;;13.95;5.60;;;;;;;16.83;25.80;99313.84;4440339;32;20127;-89
2022/04/13 09:40:33;;;;;;;12.88;5.82;;;;;;;16.82;25.27;99304.16;4440249;32;20098;-90
2022/04/13 09:43:07;;;;;;;12.57;5.50;;;;;;;16.75;25.69;99308.19;4440274;32;20112;-90
2022/04/13 09:45:34;;;;;;;13.77;5.18;;;;;;;16.84;26.39;99310.19;4440308;32;20132;-89
2022/04/13 09:47:59;;;;;;;13.20;5.40;;;;;;;16.82;26.41;99301.47;4435200;32;163602;-91
2022/04/13 09:50:25;;;;;;;11.40;5.15;;;;;;;16.91;26.11;99303.50;4440130;32;20162;-91
2022/04/13 09:52:55;;;;;;;13.50;5.97;;;;;;;16.87;26.47;99307.34;4440196;32;20420;-90
2022/04/13 09:55:24;;;;;;;12.90;5.50;;;;;;;16.96;26.59;99304.00;4426107;32;20104;-90
2022/04/13 09:57:50;;;;;;;12.88;5.70;;;;;;;16.93;25.92;99306.87;4440106;32;20423;-91
2022/04/13 10:00:16;;;;;;;13.50;5.80;;;;;;;16.82;25.91;99304.16;4426118;32;20110;-90
2022/04/13 10:02:44;;;;;;;12.82;5.70;;;;;;;16.85;25.72;99314.59;4440096;32;20479;-91
2022/04/13 10:05:21;;;;;;;12.35;5.45;;;;;;;16.92;26.42;99301.66;4440165;32;20107;-90
2022/04/13 10:08:05;;;;;;;13.27;5.82;;;;;;;16.94;25.97;99297.94;4439871;32;20464;-90
2022/04/13 10:10:31;;;;;;;12.88;5.40;;;;;;;16.95;26.13;99304.97;4440073;32;20085;-91
2022/04/13 10:12:56;;;;;;;12.05;5.20;;;;;;;16.93;25.81;99304.22;4425948;32;20144;-89
2022/04/13 10:15:22;;;;;;;14.20;5.60;;;;;;;17.05;26.12;99303.31;4439969;32;20353;-90
2022/04/13 10:17:47;;;;;;;14.60;6.60;;;;;;;17.04;25.14;99288.31;4439790;32;20086;-90
2022/04/13 10:20:13;;;;;;;12.60;5.60;;;;;;;16.60;25.95;99296.84;4439844;32;20116;-89
2022/04/13 10:22:57;;;;;;;13.77;5.43;;;;;;;16.93;26.09;99288.25;4439842;32;20119;-89
2022/04/13 10:25:27;;;;;;;13.13;5.45;;;;;;;17.14;26.47;99290.31;4439869;32;20520;-89
2022/04/13 10:27:59;;;;;;;15.40;6.22;;;;;;;17.19;25.95;99290.81;4426283;32;20453;-91
2022/04/13 10:30:33;;;;;;;13.73;5.70;;;;;;;17.22;25.39;99288.78;4440052;32;20203;-90
2022/04/13 10:33:05;;;;;;;13.13;5.87;;;;;;;17.23;25.84;99285.16;4439886;32;20469;-90
2022/04/13 10:35:35;;;;;;;13.50;6.07;;;;;;;17.21;25.58;99279.09;4439671;32;20111;-90
2022/04/13 10:38:02;;;;;;;13.35;5.25;;;;;;;17.23;25.50;99273.62;4439854;32;20159;-91
2022/04/13 10:40:32;;;;;;;14.35;6.10;;;;;;;17.36;25.79;99271.75;4439619;32;20110;-90
2022/04/13 10:43:01;;;;;;;14.38;5.70;;;;;;;17.35;25.82;99271.91;4439660;32;20093;-91
2022/04/13 10:45:30;;;;;;;12.88;5.90;;;;;;;17.41;25.46;99261.63;4439486;32;20461;-91
2022/04/13 10:47:59;;;;;;;12.80;5.75;;;;;;;17.52;25.85;99257.28;4425838;32;20512;-91
2022/04/13 10:50:38;;;;;;;15.70;5.82;;;;;;;17.55;25.65;99263.25;4439406;32;20097;-91
2022/04/13 10:53:05;;;;;;;14.38;5.62;;;;;;;17.27;25.12;99259.16;4425603;32;20093;-90
2022/04/13 10:55:33;;;;;;;14.40;6.03;;;;;;;17.57;25.29;99257.81;4439519;32;20089;-91
2022/04/13 10:58:07;;;;;;;12.85;5.62;;;;;;;17.60;25.79;99257.56;4426002;32;20182;-90
2022/04/13 11:00:35;;;;;;;14.15;6.00;;;;;;;17.61;25.73;99243.28;4439362;32;20085;-91
2022/04/13 11:03:05;;;;;;;16.85;5.95;;;;;;;17.73;24.98;99249.47;4425311;32;20094;-90
2022/04/13 11:05:31;;;;;;;13.50;5.87;;;;;;;17.72;25.07;99250.47;4439276;32;20085;-91
2022/04/13 11:08:30;;;;;;;12.20;5.30;;;;;;;17.64;24.58;99243.91;4439211;32;20153;-90
2022/04/13 11:10:56;;;;;;;14.87;6.28;;;;;;;17.73;25.03;99242.34;4363857;32;20119;-89
2022/04/13 11:13:22;;;;;;;13.65;5.60;;;;;;;17.71;24.26;99240.75;4376460;32;20173;-91
2022/04/13 11:15:50;;;;;;;14.27;6.37;;;;;;;17.72;24.76;99229.16;4376396;32;20098;-90
2022/04/13 11:18:17;;;;;;;13.62;6.00;;;;;;;17.76;25.70;99236.78;4364002;32;20163;-91
2022/04/13 11:21:01;;;;;;;15.15;5.80;;;;;;;17.67;25.34;99232.16;4377354;32;20131;-90
2022/04/13 11:23:49;;;;;;;14.75;6.15;;;;;;;17.79;25.49;99231.22;4378341;32;20107;-90